Time;durP1;ratioP1;P1;durP2;ratioP2;P2;SDS_P1;SDS_P2;PMS_P1;PMS_P2;Temp;Humidity;BMP_temperature;BMP_pressure;BME280_temperature;BME280_humidity;BME280_pressure;Samples;Min_cycle;Max_cycle;Signal;HPM_P1;HPM_P2
2021/05/26 00:00:51;;;;;;;13.43;4.05;;;;;;;;;;5020462;28;20017;-86
2021/05/26 00:03:17;;;;;;;15.38;4.82;;;;;;;;;;5028366;28;20083;-86
2021/05/26 00:05:44;;;;;;;15.60;4.85;;;;;;;;;;5033882;28;20044;-86
2021/05/26 00:08:10;;;;;;;16.30;5.45;;;;;;;;;;5029639;28;20021;-85
2021/05/26 00:13:29;;;;;;;16.65;5.07;;;;;;;;;;5019375;28;20123;-87
2021/05/26 00:15:55;;;;;;;17.05;6.35;;;;;;;;;;5017957;28;20052;-85
2021/05/26 00:18:22;;;;;;;15.93;5.15;;;;;;;;;;5022111;28;20025;-85
2021/05/26 00:20:52;;;;;;;14.98;5.10;;;;;;;;;;5023267;28;20049;-86
2021/05/26 00:23:18;;;;;;;15.20;5.10;;;;;;;;;;5038280;28;20051;-87
2021/05/26 00:25:44;;;;;;;15.13;4.72;;;;;;;;;;5023205;28;20035;-87
2021/05/26 00:28:11;;;;;;;14.07;3.92;;;;;;;;;;5029631;28;20032;-84
2021/05/26 00:30:45;;;;;;;15.25;4.40;;;;;;;;;;5039854;28;20106;-85
2021/05/26 00:33:11;;;;;;;15.23;4.28;;;;;;;;;;5014619;28;20140;-83
2021/05/26 00:35:37;;;;;;;15.35;4.50;;;;;;;;;;5036302;28;20702;-84
2021/05/26 00:38:06;;;;;;;15.18;4.55;;;;;;;;;;5034183;28;20123;-84
2021/05/26 00:40:33;;;;;;;12.30;4.43;;;;;;;;;;5039566;28;20031;-83
2021/05/26 00:43:04;;;;;;;15.23;4.60;;;;;;;;;;5036846;28;20021;-83
2021/05/26 00:45:31;;;;;;;15.55;4.43;;;;;;;;;;5029997;28;20044;-83
2021/05/26 00:47:57;;;;;;;15.70;4.10;;;;;;;;;;5037470;28;20051;-83
2021/05/26 00:50:25;;;;;;;14.25;3.83;;;;;;;;;;5031361;28;20037;-84
2021/05/26 00:52:52;;;;;;;13.88;4.30;;;;;;;;;;5037543;28;20531;-84
2021/05/26 00:55:21;;;;;;;15.25;3.90;;;;;;;;;;5032635;28;20033;-84
2021/05/26 00:57:48;;;;;;;13.20;4.28;;;;;;;;;;5036753;28;20028;-83
2021/05/26 01:00:17;;;;;;;13.07;4.30;;;;;;;;;;5032833;28;20060;-83
2021/05/26 01:02:43;;;;;;;14.32;3.70;;;;;;;;;;5019275;28;20036;-83
2021/05/26 01:05:11;;;;;;;13.75;3.65;;;;;;;;;;5034983;28;20162;-84
2021/05/26 01:07:40;;;;;;;16.05;3.88;;;;;;;;;;5034398;28;20060;-83
2021/05/26 01:10:07;;;;;;;14.43;3.58;;;;;;;;;;5034278;28;20021;-84
2021/05/26 01:12:35;;;;;;;10.27;3.00;;;;;;;;;;5033727;28;20033;-82
2021/05/26 01:15:01;;;;;;;13.15;3.63;;;;;;;;;;5039532;28;20021;-83
2021/05/26 01:17:28;;;;;;;9.93;2.88;;;;;;;;;;5032024;28;20036;-82
2021/05/26 01:19:54;;;;;;;11.52;2.75;;;;;;;;;;5034738;28;20968;-85
2021/05/26 01:22:20;;;;;;;12.95;3.20;;;;;;;;;;5032633;28;20147;-85
2021/05/26 01:24:46;;;;;;;;;;;;;;;;;;5039489;28;20028;-85
2021/05/26 01:27:13;;;;;;;13.02;3.22;;;;;;;;;;5037368;28;19912;-87
2021/05/26 01:29:40;;;;;;;12.32;3.08;;;;;;;;;;5035082;28;20059;-86
2021/05/26 01:32:06;;;;;;;13.88;3.67;;;;;;;;;;5032470;28;20750;-88
2021/05/26 01:34:32;;;;;;;12.88;3.08;;;;;;;;;;5036794;28;20722;-87
2021/05/26 01:36:59;;;;;;;12.95;3.85;;;;;;;;;;5039996;28;20044;-86
2021/05/26 01:39:25;;;;;;;13.00;3.15;;;;;;;;;;5032597;28;20055;-86
2021/05/26 01:41:51;;;;;;;11.45;3.10;;;;;;;;;;5038896;28;20019;-86
2021/05/26 01:44:19;;;;;;;13.32;3.30;;;;;;;;;;5028396;28;20029;-86
2021/05/26 01:46:46;;;;;;;13.95;3.42;;;;;;;;;;5035510;28;20054;-85
2021/05/26 01:49:12;;;;;;;10.93;2.80;;;;;;;;;;5021229;28;20033;-86
2021/05/26 01:51:38;;;;;;;11.05;2.55;;;;;;;;;;5022830;28;20033;-85
2021/05/26 01:54:04;;;;;;;11.48;2.65;;;;;;;;;;5017697;28;20116;-85
2021/05/26 01:56:31;;;;;;;12.00;3.22;;;;;;;;;;5032904;28;20032;-86
2021/05/26 01:58:58;;;;;;;12.32;2.60;;;;;;;;;;5032598;28;20025;-86
2021/05/26 02:01:25;;;;;;;11.32;2.72;;;;;;;;;;5030110;28;20446;-87
2021/05/26 02:03:53;;;;;;;13.00;2.70;;;;;;;;;;5036776;28;20017;-87
2021/05/26 02:06:21;;;;;;;10.98;2.60;;;;;;;;;;5024845;28;20032;-87
2021/05/26 02:08:50;;;;;;;13.43;2.53;;;;;;;;;;5017894;28;20060;-86
2021/05/26 02:14:06;;;;;;;11.15;2.90;;;;;;;;;;5035144;28;20089;-87
2021/05/26 02:16:33;;;;;;;11.07;2.60;;;;;;;;;;5024782;28;20029;-86
2021/05/26 02:18:59;;;;;;;12.73;2.63;;;;;;;;;;5034438;28;20044;-84
2021/05/26 02:21:26;;;;;;;10.15;2.50;;;;;;;;;;5033742;28;20115;-86
2021/05/26 02:23:52;;;;;;;11.80;2.50;;;;;;;;;;5036774;28;20024;-86
2021/05/26 02:26:20;;;;;;;9.50;2.45;;;;;;;;;;5036763;28;20032;-85
2021/05/26 02:28:46;;;;;;;11.20;2.53;;;;;;;;;;5031949;28;20123;-86
2021/05/26 02:31:12;;;;;;;14.70;2.83;;;;;;;;;;5037486;28;20029;-84
2021/05/26 02:33:39;;;;;;;12.32;2.10;;;;;;;;;;5030633;28;20835;-85
2021/05/26 02:36:05;;;;;;;9.65;2.45;;;;;;;;;;5037524;28;20037;-85
2021/05/26 02:38:32;;;;;;;8.73;2.35;;;;;;;;;;5035207;28;20101;-85
2021/05/26 02:40:58;;;;;;;12.95;2.53;;;;;;;;;;5034748;28;20796;-85
2021/05/26 02:43:25;;;;;;;13.40;2.60;;;;;;;;;;5029874;28;20064;-87
2021/05/26 02:45:51;;;;;;;10.40;2.28;;;;;;;;;;5037871;28;20025;-85
2021/05/26 02:48:18;;;;;;;11.30;2.20;;;;;;;;;;5029974;28;20623;-85
2021/05/26 02:50:44;;;;;;;11.63;2.47;;;;;;;;;;5035426;28;20107;-85
2021/05/26 02:53:11;;;;;;;10.57;2.20;;;;;;;;;;5034942;28;20130;-85
2021/05/26 02:55:38;;;;;;;10.52;2.13;;;;;;;;;;5028494;28;20033;-84
2021/05/26 02:58:04;;;;;;;10.20;2.28;;;;;;;;;;5031625;28;20025;-83
2021/05/26 03:00:31;;;;;;;11.63;2.28;;;;;;;;;;5030100;28;20036;-85
2021/05/26 03:02:57;;;;;;;9.30;2.25;;;;;;;;;;5034939;28;20037;-83
2021/05/26 03:05:26;;;;;;;10.95;2.47;;;;;;;;;;5033162;28;20083;-85
2021/05/26 03:07:52;;;;;;;9.45;1.73;;;;;;;;;;5039377;28;20178;-85
2021/05/26 03:10:19;;;;;;;10.43;2.40;;;;;;;;;;5045987;28;20139;-84
2021/05/26 03:12:47;;;;;;;11.18;2.20;;;;;;;;;;5039429;28;20020;-84
2021/05/26 03:15:15;;;;;;;8.18;1.90;;;;;;;;;;5039002;28;20033;-85
2021/05/26 03:17:42;;;;;;;9.07;1.83;;;;;;;;;;5037763;28;20037;-84
2021/05/26 03:20:12;;;;;;;10.65;2.00;;;;;;;;;;5039575;28;20088;-84
2021/05/26 03:22:39;;;;;;;10.88;2.22;;;;;;;;;;5025020;28;20040;-85
2021/05/26 03:25:06;;;;;;;9.43;1.80;;;;;;;;;;5034069;28;20032;-85
2021/05/26 03:27:35;;;;;;;11.70;2.60;;;;;;;;;;5021314;28;20033;-84
2021/05/26 03:30:19;;;;;;;11.48;2.08;;;;;;;;;;5039823;28;20029;-86
2021/05/26 03:32:46;;;;;;;7.05;1.50;;;;;;;;;;5040957;28;20036;-84
2021/05/26 03:35:14;;;;;;;8.80;2.10;;;;;;;;;;5022836;28;20508;-87
2021/05/26 03:37:40;;;;;;;8.80;1.90;;;;;;;;;;5039805;28;20040;-86
2021/05/26 03:40:08;;;;;;;11.98;2.15;;;;;;;;;;5036907;28;20021;-84
2021/05/26 03:42:34;;;;;;;10.13;2.00;;;;;;;;;;5039681;28;20119;-86
2021/05/26 03:45:00;;;;;;;;;;;;;;;;;;5041924;28;20461;-84
2021/05/26 03:47:26;;;;;;;10.38;1.90;;;;;;;;;;5034966;28;19913;-84
2021/05/26 03:49:54;;;;;;;9.05;1.83;;;;;;;;;;5035713;28;20041;-84
2021/05/26 03:52:21;;;;;;;11.23;2.00;;;;;;;;;;5032850;28;20112;-85
2021/05/26 03:54:48;;;;;;;11.63;2.33;;;;;;;;;;5037644;28;20116;-84
2021/05/26 03:57:14;;;;;;;10.02;2.00;;;;;;;;;;5032447;28;20033;-86
2021/05/26 03:59:40;;;;;;;9.68;2.08;;;;;;;;;;5039479;28;20056;-85
2021/05/26 04:02:06;;;;;;;;;;;;;;;;;;5038355;28;20031;-85
2021/05/26 04:04:37;;;;;;;10.05;1.88;;;;;;;;;;5034421;28;19916;-85
2021/05/26 04:07:04;;;;;;;10.25;1.73;;;;;;;;;;5038425;28;20285;-84
2021/05/26 04:09:30;;;;;;;10.13;1.92;;;;;;;;;;5041621;28;20037;-84
2021/05/26 04:11:56;;;;;;;9.48;1.65;;;;;;;;;;5025832;28;20021;-84
2021/05/26 04:14:22;;;;;;;;;;;;;;;;;;5038812;28;20463;-84
2021/05/26 04:16:48;;;;;;;8.00;1.70;;;;;;;;;;5040772;28;19909;-84
2021/05/26 04:19:15;;;;;;;8.77;1.63;;;;;;;;;;5037359;28;20520;-84
2021/05/26 04:21:41;;;;;;;8.50;1.77;;;;;;;;;;5037246;28;20033;-85
2021/05/26 04:24:07;;;;;;;;;;;;;;;;;;5034298;28;20543;-84
2021/05/26 04:26:34;;;;;;;7.53;1.83;;;;;;;;;;5037437;28;19920;-84
2021/05/26 04:29:02;;;;;;;10.20;2.13;;;;;;;;;;5019014;28;20039;-85
2021/05/26 04:31:29;;;;;;;10.73;2.08;;;;;;;;;;5037318;28;20043;-83
2021/05/26 04:33:56;;;;;;;9.27;2.00;;;;;;;;;;5039883;28;20032;-84
2021/05/26 04:36:24;;;;;;;9.13;1.90;;;;;;;;;;5031166;28;20086;-83
2021/05/26 04:38:50;;;;;;;9.23;2.08;;;;;;;;;;5035699;28;20048;-84
2021/05/26 04:41:16;;;;;;;7.85;2.10;;;;;;;;;;5032332;28;20021;-86
2021/05/26 04:43:42;;;;;;;10.68;2.47;;;;;;;;;;5030035;28;20090;-84
2021/05/26 04:46:08;;;;;;;;;;;;;;;;;;5035434;28;20026;-85
2021/05/26 04:48:35;;;;;;;9.40;1.90;;;;;;;;;;5041236;28;19912;-85
2021/05/26 04:51:01;;;;;;;10.52;2.13;;;;;;;;;;5022634;28;20025;-85
2021/05/26 04:53:27;;;;;;;15.15;3.28;;;;;;;;;;5034959;28;20033;-84
2021/05/26 04:55:55;;;;;;;13.00;2.42;;;;;;;;;;5035951;28;20021;-85
2021/05/26 04:58:21;;;;;;;12.00;2.55;;;;;;;;;;5016256;28;20088;-85
2021/05/26 05:00:47;;;;;;;12.25;2.35;;;;;;;;;;5036769;28;20040;-85
2021/05/26 05:03:15;;;;;;;9.13;1.77;;;;;;;;;;5033716;28;20037;-85
2021/05/26 05:05:41;;;;;;;10.48;2.08;;;;;;;;;;5039491;28;20025;-85
2021/05/26 05:08:09;;;;;;;;;;;;;;;;;;5034349;28;21303;-84
2021/05/26 05:10:36;;;;;;;7.65;1.60;;;;;;;;;;5040867;28;19998;-84
2021/05/26 05:13:02;;;;;;;8.40;1.90;;;;;;;;;;5034021;28;20143;-85
2021/05/26 05:15:29;;;;;;;8.35;1.70;;;;;;;;;;5035569;28;20124;-84
2021/05/26 05:17:59;;;;;;;10.88;2.00;;;;;;;;;;5023778;28;20028;-86
2021/05/26 05:20:27;;;;;;;12.85;2.10;;;;;;;;;;5030563;28;20461;-84
2021/05/26 05:22:55;;;;;;;10.77;2.05;;;;;;;;;;5028820;28;20050;-84
2021/05/26 05:25:22;;;;;;;10.43;2.25;;;;;;;;;;5030697;28;20024;-84
2021/05/26 05:27:50;;;;;;;12.95;3.85;;;;;;;;;;5048911;28;20028;-85
2021/05/26 05:30:16;;;;;;;10.23;3.13;;;;;;;;;;5027002;28;20033;-85
2021/05/26 05:32:42;;;;;;;12.68;3.17;;;;;;;;;;5038750;28;20037;-85
2021/05/26 05:35:11;;;;;;;11.10;3.40;;;;;;;;;;5031868;28;20029;-85
2021/05/26 05:37:38;;;;;;;13.40;3.95;;;;;;;;;;5039971;28;20202;-85
2021/05/26 05:40:05;;;;;;;14.77;3.72;;;;;;;;;;5025677;28;20029;-85
2021/05/26 05:42:32;;;;;;;17.02;4.40;;;;;;;;;;5022026;28;20078;-85
2021/05/26 05:44:59;;;;;;;11.77;3.55;;;;;;;;;;5033739;28;20047;-84
2021/05/26 05:47:25;;;;;;;12.45;4.00;;;;;;;;;;5030339;28;20098;-86
2021/05/26 05:49:51;;;;;;;11.52;3.90;;;;;;;;;;5039077;28;20020;-84
2021/05/26 05:52:17;;;;;;;10.52;3.92;;;;;;;;;;5017446;28;20036;-86
2021/05/26 05:54:44;;;;;;;12.25;4.35;;;;;;;;;;5035931;28;20032;-84
2021/05/26 05:57:10;;;;;;;11.20;4.15;;;;;;;;;;5034599;28;20035;-85
2021/05/26 05:59:37;;;;;;;9.45;2.58;;;;;;;;;;5038800;28;20021;-84
2021/05/26 06:02:03;;;;;;;10.52;2.83;;;;;;;;;;5034107;28;20111;-85
2021/05/26 06:04:30;;;;;;;12.10;3.10;;;;;;;;;;5034776;28;20036;-86
2021/05/26 06:06:58;;;;;;;13.38;2.40;;;;;;;;;;5037714;28;20029;-85
2021/05/26 06:09:24;;;;;;;10.77;2.60;;;;;;;;;;5015811;28;20036;-85
2021/05/26 06:11:52;;;;;;;12.88;2.30;;;;;;;;;;5019660;28;20124;-86
2021/05/26 06:14:19;;;;;;;8.80;2.08;;;;;;;;;;5029660;28;20040;-85
2021/05/26 06:16:46;;;;;;;9.98;2.10;;;;;;;;;;5022315;28;20135;-86
2021/05/26 06:19:12;;;;;;;9.70;2.17;;;;;;;;;;5033876;28;20033;-85
2021/05/26 06:21:39;;;;;;;11.20;2.58;;;;;;;;;;5032198;28;20025;-85
2021/05/26 06:24:05;;;;;;;12.40;2.42;;;;;;;;;;5033338;28;20025;-84
2021/05/26 06:26:32;;;;;;;11.73;1.88;;;;;;;;;;5032597;28;20059;-85
2021/05/26 06:29:02;;;;;;;9.57;2.15;;;;;;;;;;5019725;28;20025;-87
2021/05/26 06:31:29;;;;;;;11.63;2.58;;;;;;;;;;5029464;28;20159;-85
2021/05/26 06:33:56;;;;;;;8.48;2.30;;;;;;;;;;5018058;28;20040;-85
2021/05/26 06:36:23;;;;;;;10.15;1.67;;;;;;;;;;5033109;28;20029;-85
2021/05/26 06:38:49;;;;;;;10.18;1.70;;;;;;;;;;5043572;28;20782;-86
2021/05/26 06:41:16;;;;;;;9.35;2.08;;;;;;;;;;5034562;28;20037;-85
2021/05/26 06:43:42;;;;;;;10.70;1.67;;;;;;;;;;5023109;28;20461;-85
2021/05/26 06:46:09;;;;;;;8.52;1.90;;;;;;;;;;5036446;28;20044;-85
2021/05/26 06:48:35;;;;;;;9.13;1.70;;;;;;;;;;5027588;28;20024;-86
2021/05/26 06:51:03;;;;;;;8.50;2.00;;;;;;;;;;5041598;28;20043;-85
2021/05/26 06:53:31;;;;;;;7.85;1.73;;;;;;;;;;5037374;28;20029;-84
2021/05/26 06:55:57;;;;;;;8.82;1.63;;;;;;;;;;5039169;28;20025;-84
2021/05/26 06:58:23;;;;;;;9.57;1.75;;;;;;;;;;5036103;28;20084;-85
2021/05/26 07:00:52;;;;;;;9.60;2.00;;;;;;;;;;5043055;28;20025;-86
2021/05/26 07:03:20;;;;;;;10.68;2.47;;;;;;;;;;5023068;28;20033;-85
2021/05/26 07:05:46;;;;;;;8.40;1.98;;;;;;;;;;5044008;28;20017;-85
2021/05/26 07:08:13;;;;;;;9.73;2.20;;;;;;;;;;5038874;28;20032;-86
2021/05/26 07:10:40;;;;;;;14.52;1.92;;;;;;;;;;5043108;28;20044;-87
2021/05/26 07:19:18;;;;;;;8.27;1.98;;;;;;;;;;4997740;28;19960;-85
2021/05/26 07:21:44;;;;;;;8.60;1.58;;;;;;;;;;4978180;28;20608;-86
2021/05/26 07:24:10;;;;;;;8.23;1.92;;;;;;;;;;4980590;28;20026;-86
2021/05/26 07:26:48;;;;;;;7.90;1.88;;;;;;;;;;4981103;28;20035;-85
2021/05/26 07:29:14;;;;;;;9.23;1.90;;;;;;;;;;4976157;28;20194;-85
2021/05/26 07:31:41;;;;;;;8.82;2.10;;;;;;;;;;4981740;28;20126;-84
2021/05/26 07:34:33;;;;;;;10.02;2.05;;;;;;;;;;4969926;28;20565;-85
2021/05/26 07:36:59;;;;;;;9.80;2.30;;;;;;;;;;4981413;28;20070;-84
2021/05/26 07:39:28;;;;;;;7.50;1.90;;;;;;;;;;4974877;28;20030;-84
2021/05/26 07:41:54;;;;;;;10.13;2.30;;;;;;;;;;4961072;28;20046;-84
2021/05/26 07:44:20;;;;;;;10.45;2.30;;;;;;;;;;4977308;28;21011;-84
2021/05/26 07:46:47;;;;;;;9.45;2.38;;;;;;;;;;4970772;28;20084;-85
2021/05/26 07:49:13;;;;;;;10.40;2.80;;;;;;;;;;4977002;28;20525;-87
2021/05/26 07:51:45;;;;;;;8.02;1.90;;;;;;;;;;4971822;28;20061;-85
2021/05/26 07:54:11;;;;;;;7.95;2.22;;;;;;;;;;4997297;28;20050;-84
2021/05/26 07:56:38;;;;;;;9.07;2.90;;;;;;;;;;5016031;28;20030;-86
2021/05/26 07:59:06;;;;;;;10.98;2.40;;;;;;;;;;5023244;28;20125;-86
2021/05/26 08:01:36;;;;;;;8.18;1.73;;;;;;;;;;5018858;28;20040;-85
2021/05/26 08:04:06;;;;;;;9.65;2.00;;;;;;;;;;5021392;28;20045;-85
2021/05/26 08:06:32;;;;;;;8.82;2.00;;;;;;;;;;5007907;28;20065;-85
2021/05/26 08:08:58;;;;;;;10.32;2.75;;;;;;;;;;5022561;28;20030;-86
2021/05/26 08:11:24;;;;;;;10.95;2.42;;;;;;;;;;5020931;28;20377;-85
2021/05/26 08:13:52;;;;;;;10.93;2.00;;;;;;;;;;5017596;28;20057;-84
2021/05/26 08:16:18;;;;;;;11.73;2.50;;;;;;;;;;5024520;28;20045;-85
2021/05/26 08:18:45;;;;;;;7.30;2.25;;;;;;;;;;5027103;28;20505;-85
2021/05/26 08:21:15;;;;;;;9.82;1.90;;;;;;;;;;5039682;28;20708;-86
2021/05/26 08:27:03;;;;;;;10.23;2.53;;;;;;;;;;5026587;28;20110;-86
2021/05/26 08:29:34;;;;;;;8.70;2.70;;;;;;;;;;5040330;28;20049;-85
2021/05/26 08:32:01;;;;;;;10.98;2.40;;;;;;;;;;5041007;28;20029;-87
2021/05/26 08:34:28;;;;;;;9.02;2.38;;;;;;;;;;5039009;28;20033;-87
2021/05/26 08:36:59;;;;;;;10.90;2.20;;;;;;;;;;5043827;28;20120;-87
2021/05/26 08:39:25;;;;;;;8.30;1.55;;;;;;;;;;5037875;28;20037;-87
2021/05/26 08:41:52;;;;;;;10.38;2.20;;;;;;;;;;5040096;28;20382;-87
2021/05/26 08:44:21;;;;;;;11.00;1.90;;;;;;;;;;5033701;28;20018;-86
2021/05/26 08:46:55;;;;;;;9.27;2.13;;;;;;;;;;5041821;28;20017;-89
2021/05/26 08:49:22;;;;;;;8.40;1.73;;;;;;;;;;5041940;28;20120;-86
2021/05/26 08:51:52;;;;;;;7.18;1.30;;;;;;;;;;5049225;28;20034;-85
2021/05/26 08:54:20;;;;;;;11.88;2.15;;;;;;;;;;5050882;28;20025;-86
2021/05/26 08:56:48;;;;;;;8.15;2.00;;;;;;;;;;5050805;28;20091;-85
2021/05/26 09:05:24;;;;;;;9.50;1.60;;;;;;;;;;5024847;28;20395;-88
2021/05/26 09:07:51;;;;;;;7.18;1.40;;;;;;;;;;5030124;28;20024;-88
2021/05/26 09:10:17;;;;;;;6.40;1.70;;;;;;;;;;5045334;28;20029;-87
2021/05/26 09:12:44;;;;;;;8.40;1.52;;;;;;;;;;5056457;28;20035;-87
2021/05/26 09:15:15;;;;;;;8.65;1.42;;;;;;;;;;5038836;28;20036;-88
2021/05/26 09:17:45;;;;;;;9.88;1.70;;;;;;;;;;5041360;28;20475;-87
2021/05/26 09:20:15;;;;;;;7.95;1.70;;;;;;;;;;5042814;28;20044;-88
2021/05/26 09:22:57;;;;;;;6.10;1.48;;;;;;;;;;5040387;28;20033;-85
2021/05/26 09:25:23;;;;;;;13.02;2.20;;;;;;;;;;5025863;28;20029;-87
2021/05/26 09:27:51;;;;;;;7.45;1.63;;;;;;;;;;5034379;28;20044;-86
2021/05/26 09:30:45;;;;;;;7.78;1.48;;;;;;;;;;5038494;28;20033;-86
2021/05/26 09:33:30;;;;;;;9.00;1.65;;;;;;;;;;5026567;28;20025;-85
2021/05/26 09:36:21;;;;;;;9.30;1.60;;;;;;;;;;5029795;28;20029;-86
2021/05/26 09:39:02;;;;;;;6.90;1.67;;;;;;;;;;5046303;28;20100;-87
2021/05/26 09:41:34;;;;;;;10.43;1.98;;;;;;;;;;5045506;28;20065;-86
2021/05/26 09:44:01;;;;;;;8.88;1.80;;;;;;;;;;5050254;28;20029;-86
2021/05/26 09:46:33;;;;;;;8.52;1.77;;;;;;;;;;5047945;28;20444;-86
2021/05/26 09:49:01;;;;;;;9.45;1.67;;;;;;;;;;5044720;28;20849;-87
2021/05/26 09:51:28;;;;;;;8.63;1.85;;;;;;;;;;5037275;28;20036;-86
2021/05/26 09:54:17;;;;;;;8.90;1.60;;;;;;;;;;5041496;28;20044;-86
2021/05/26 09:56:46;;;;;;;10.00;1.70;;;;;;;;;;5041517;28;20033;-87
2021/05/26 09:59:12;;;;;;;7.15;1.52;;;;;;;;;;5017822;28;20418;-87
2021/05/26 10:01:45;;;;;;;8.85;2.25;;;;;;;;;;5022267;28;20075;-86
2021/05/26 10:04:12;;;;;;;8.52;1.85;;;;;;;;;;5031222;28;20140;-87
2021/05/26 10:09:34;;;;;;;8.95;2.00;;;;;;;;;;5022327;28;20075;-87
2021/05/26 10:12:03;;;;;;;6.88;1.55;;;;;;;;;;5040273;28;20025;-86
2021/05/26 10:14:31;;;;;;;8.57;1.70;;;;;;;;;;5037546;28;20029;-86
2021/05/26 10:16:59;;;;;;;10.18;1.80;;;;;;;;;;5033895;28;20040;-86
2021/05/26 10:19:27;;;;;;;9.00;2.28;;;;;;;;;;5034396;28;20532;-87
2021/05/26 10:22:19;;;;;;;8.70;1.90;;;;;;;;;;5019974;28;20456;-87
2021/05/26 10:24:46;;;;;;;8.32;1.50;;;;;;;;;;5040781;28;20501;-87
2021/05/26 10:27:31;;;;;;;10.02;1.60;;;;;;;;;;5030512;28;20058;-85
2021/05/26 10:30:27;;;;;;;6.90;1.65;;;;;;;;;;5035278;28;20033;-85
2021/05/26 10:33:18;;;;;;;9.80;2.13;;;;;;;;;;5025881;28;20056;-85
2021/05/26 10:35:57;;;;;;;6.63;1.30;;;;;;;;;;5034555;28;20044;-87
2021/05/26 10:38:24;;;;;;;8.05;1.75;;;;;;;;;;5021687;28;20753;-86
2021/05/26 10:40:56;;;;;;;8.50;1.92;;;;;;;;;;5039559;28;20064;-87
2021/05/26 10:43:22;;;;;;;9.88;1.80;;;;;;;;;;5042416;28;20060;-87
2021/05/26 10:45:50;;;;;;;8.15;1.65;;;;;;;;;;5044484;28;20730;-86
2021/05/26 10:48:36;;;;;;;15.13;1.60;;;;;;;;;;5037836;28;20325;-86
2021/05/26 10:51:02;;;;;;;8.57;1.60;;;;;;;;;;5043053;28;20501;-87
2021/05/26 10:53:36;;;;;;;11.40;1.80;;;;;;;;;;5019813;28;20045;-86
2021/05/26 10:56:03;;;;;;;7.75;1.48;;;;;;;;;;5039929;28;20033;-86
2021/05/26 10:58:36;;;;;;;8.45;1.83;;;;;;;;;;5020899;28;20546;-87
2021/05/26 11:01:08;;;;;;;8.35;1.40;;;;;;;;;;5024215;28;20056;-86
2021/05/26 11:03:34;;;;;;;7.18;1.50;;;;;;;;;;5038588;28;20029;-86
2021/05/26 11:06:22;;;;;;;8.57;2.03;;;;;;;;;;5027398;28;20462;-87
2021/05/26 11:08:50;;;;;;;6.72;1.52;;;;;;;;;;5026413;28;20093;-86
2021/05/26 11:11:25;;;;;;;9.25;1.67;;;;;;;;;;5021969;28;20044;-87
2021/05/26 11:14:09;;;;;;;12.32;2.00;;;;;;;;;;5023876;28;20030;-86
2021/05/26 11:16:41;;;;;;;17.33;2.63;;;;;;;;;;5038443;28;20119;-88
2021/05/26 11:19:20;;;;;;;12.02;2.30;;;;;;;;;;5021037;28;20045;-87
2021/05/26 11:22:00;;;;;;;8.50;1.80;;;;;;;;;;5036835;28;20021;-85
2021/05/26 11:24:27;;;;;;;8.27;1.70;;;;;;;;;;5035097;28;20068;-85
2021/05/26 11:26:53;;;;;;;7.47;2.10;;;;;;;;;;5026556;28;20045;-86
2021/05/26 11:29:26;;;;;;;10.32;1.85;;;;;;;;;;5038966;28;20033;-85
2021/05/26 11:35:21;;;;;;;13.48;2.28;;;;;;;;;;5041360;28;20509;-86
2021/05/26 11:37:47;;;;;;;8.98;1.77;;;;;;;;;;5051983;28;20040;-86
2021/05/26 11:40:26;;;;;;;8.10;1.95;;;;;;;;;;5043858;28;20033;-87
2021/05/26 11:42:53;;;;;;;7.25;1.77;;;;;;;;;;5032740;28;20022;-86
2021/05/26 11:45:22;;;;;;;10.40;1.90;;;;;;;;;;5050585;28;20039;-85
2021/05/26 11:47:50;;;;;;;9.60;1.88;;;;;;;;;;5049539;28;20025;-86
2021/05/26 11:50:16;;;;;;;7.25;1.65;;;;;;;;;;5045942;28;20029;-87
2021/05/26 11:53:01;;;;;;;6.93;1.85;;;;;;;;;;5051995;28;20194;-85
2021/05/26 11:55:28;;;;;;;6.47;1.58;;;;;;;;;;5052424;28;20041;-85
2021/05/26 11:57:55;;;;;;;8.10;1.85;;;;;;;;;;5049641;28;20065;-86
2021/05/26 12:00:29;;;;;;;7.50;1.60;;;;;;;;;;5025348;28;20822;-87
2021/05/26 12:03:03;;;;;;;8.85;2.50;;;;;;;;;;5048254;28;20151;-86
2021/05/26 12:05:38;;;;;;;9.30;2.43;;;;;;;;;;5025031;28;20037;-85
2021/05/26 12:08:14;;;;;;;8.55;2.53;;;;;;;;;;5022647;28;20034;-86
2021/05/26 12:10:46;;;;;;;7.88;1.80;;;;;;;;;;5026308;28;20377;-85
2021/05/26 12:13:17;;;;;;;9.15;2.30;;;;;;;;;;5029907;28;20013;-88
2021/05/26 12:15:43;;;;;;;9.50;1.95;;;;;;;;;;5035827;28;20115;-86
2021/05/26 12:18:11;;;;;;;8.75;1.98;;;;;;;;;;5027861;28;20041;-87
2021/05/26 12:20:44;;;;;;;6.25;1.35;;;;;;;;;;5056477;28;20045;-88
2021/05/26 12:23:11;;;;;;;19.75;2.60;;;;;;;;;;5048624;28;20039;-89
2021/05/26 12:25:40;;;;;;;10.93;2.10;;;;;;;;;;5048660;28;20025;-89
2021/05/26 12:28:22;;;;;;;8.07;1.83;;;;;;;;;;5053457;28;20024;-89
2021/05/26 12:30:53;;;;;;;10.13;2.08;;;;;;;;;;5046472;28;20028;-87
2021/05/26 12:33:21;;;;;;;9.85;1.90;;;;;;;;;;5034994;28;20047;-89
2021/05/26 12:36:13;;;;;;;12.48;2.85;;;;;;;;;;5033582;28;20080;-89
2021/05/26 12:39:05;;;;;;;11.02;2.45;;;;;;;;;;5044052;28;20048;-88
2021/05/26 12:41:38;;;;;;;8.10;2.00;;;;;;;;;;5044980;28;20036;-88
2021/05/26 12:44:12;;;;;;;7.13;1.63;;;;;;;;;;5039903;28;20029;-88
2021/05/26 12:46:44;;;;;;;8.48;2.42;;;;;;;;;;5046524;28;20112;-89
2021/05/26 12:49:49;;;;;;;12.73;2.20;;;;;;;;;;5043993;28;20053;-88
2021/05/26 12:52:26;;;;;;;12.27;2.20;;;;;;;;;;4998861;28;20065;-88
2021/05/26 12:54:52;;;;;;;8.13;1.63;;;;;;;;;;5010881;28;20026;-89
2021/05/26 12:57:24;;;;;;;8.65;2.35;;;;;;;;;;4986049;28;20029;-87
2021/05/26 12:59:54;;;;;;;9.55;2.10;;;;;;;;;;4988493;28;20034;-90
2021/05/26 13:02:31;;;;;;;9.02;2.00;;;;;;;;;;4996711;28;20208;-88
2021/05/26 13:10:57;;;;;;;8.38;1.75;;;;;;;;;;5002589;28;20092;-89
2021/05/26 13:13:25;;;;;;;8.50;1.90;;;;;;;;;;5002782;28;20489;-90
2021/05/26 13:15:52;;;;;;;8.55;1.90;;;;;;;;;;4975431;28;20124;-80
2021/05/26 13:18:23;;;;;;;9.05;1.90;;;;;;;;;;4985151;28;20056;-89
2021/05/26 13:20:50;;;;;;;7.40;1.80;;;;;;;;;;4988730;28;20095;-88
2021/05/26 13:23:17;;;;;;;9.05;1.95;;;;;;;;;;4986442;28;20041;-87
2021/05/26 13:25:51;;;;;;;8.30;2.13;;;;;;;;;;4986072;28;20026;-87
2021/05/26 13:28:19;;;;;;;8.27;2.10;;;;;;;;;;5028967;28;20029;-89
2021/05/26 13:30:49;;;;;;;9.30;2.28;;;;;;;;;;5039972;28;20081;-87
2021/05/26 13:33:16;;;;;;;8.00;2.10;;;;;;;;;;5025832;28;20071;-89
2021/05/26 13:35:43;;;;;;;8.55;2.05;;;;;;;;;;5019738;28;20036;-87
2021/05/26 13:38:12;;;;;;;7.95;1.60;;;;;;;;;;5050937;28;20055;-87
2021/05/26 13:40:41;;;;;;;8.88;1.95;;;;;;;;;;5052324;28;20060;-88
2021/05/26 13:43:09;;;;;;;7.53;1.70;;;;;;;;;;5043761;28;20052;-88
2021/05/26 13:45:36;;;;;;;8.20;1.70;;;;;;;;;;5038651;28;20033;-89
2021/05/26 13:48:05;;;;;;;8.77;2.28;;;;;;;;;;5041982;28;20097;-88
2021/05/26 13:50:32;;;;;;;7.95;2.42;;;;;;;;;;5040719;28;20491;-89
2021/05/26 13:52:59;;;;;;;10.57;2.00;;;;;;;;;;5042278;28;20029;-88
2021/05/26 13:55:27;;;;;;;7.32;1.50;;;;;;;;;;5023881;28;20029;-89
2021/05/26 13:57:54;;;;;;;8.25;1.70;;;;;;;;;;5041623;28;20584;-87
2021/05/26 14:00:21;;;;;;;7.32;1.65;;;;;;;;;;5038201;28;20029;-88
2021/05/26 14:02:47;;;;;;;8.02;1.73;;;;;;;;;;5041406;28;20101;-88
2021/05/26 14:05:16;;;;;;;6.20;1.60;;;;;;;;;;5044310;28;20028;-91
2021/05/26 14:07:45;;;;;;;8.07;1.70;;;;;;;;;;5047124;28;20654;-89
2021/05/26 14:13:03;;;;;;;10.30;1.85;;;;;;;;;;5032008;28;20118;-88
2021/05/26 14:15:54;;;;;;;7.45;1.98;;;;;;;;;;5042947;28;20029;-89
2021/05/26 14:18:21;;;;;;;8.90;2.03;;;;;;;;;;5046046;28;20086;-90
2021/05/26 14:20:48;;;;;;;8.02;1.70;;;;;;;;;;5044639;28;20033;-89
2021/05/26 14:23:14;;;;;;;9.00;2.10;;;;;;;;;;5039319;28;20523;-88
2021/05/26 14:25:41;;;;;;;6.78;1.67;;;;;;;;;;5030554;28;20029;-89
2021/05/26 14:28:08;;;;;;;7.82;1.80;;;;;;;;;;5037027;28;20024;-89
2021/05/26 14:30:35;;;;;;;9.50;1.60;;;;;;;;;;5048497;28;20555;-88
2021/05/26 14:33:01;;;;;;;10.82;2.08;;;;;;;;;;5044482;28;20116;-91
2021/05/26 14:35:29;;;;;;;7.07;1.80;;;;;;;;;;5041425;28;20029;-88
2021/05/26 14:38:04;;;;;;;6.40;1.70;;;;;;;;;;5042143;28;20045;-89
2021/05/26 14:40:30;;;;;;;10.07;2.00;;;;;;;;;;5045887;28;20033;-89
2021/05/26 14:43:01;;;;;;;6.50;1.58;;;;;;;;;;5047596;28;20036;-88
2021/05/26 14:45:27;;;;;;;8.30;1.52;;;;;;;;;;5046595;28;20043;-89
2021/05/26 14:47:55;;;;;;;7.15;1.77;;;;;;;;;;5041527;28;20026;-90
2021/05/26 14:50:21;;;;;;;8.90;2.15;;;;;;;;;;5028075;28;20039;-89
2021/05/26 14:52:47;;;;;;;7.18;1.75;;;;;;;;;;5043260;28;20029;-89
2021/05/26 14:55:14;;;;;;;10.93;2.22;;;;;;;;;;5044318;28;20062;-88
2021/05/26 14:57:40;;;;;;;8.80;1.95;;;;;;;;;;5046668;28;20031;-88
2021/05/26 15:00:07;;;;;;;10.45;2.05;;;;;;;;;;5042935;28;20021;-88
2021/05/26 15:02:35;;;;;;;7.97;1.92;;;;;;;;;;5041427;28;20530;-86
2021/05/26 15:05:01;;;;;;;10.80;2.45;;;;;;;;;;5045977;28;20031;-84
2021/05/26 15:07:27;;;;;;;8.32;2.05;;;;;;;;;;5040510;28;20031;-85
2021/05/26 15:10:00;;;;;;;9.88;2.92;;;;;;;;;;5042777;28;20416;-83
2021/05/26 15:12:29;;;;;;;11.95;2.20;;;;;;;;;;5040435;28;20021;-82
2021/05/26 15:14:56;;;;;;;11.43;2.00;;;;;;;;;;5038797;28;20052;-84
2021/05/26 15:17:23;;;;;;;7.78;1.98;;;;;;;;;;5038726;28;20025;-84
2021/05/26 15:19:51;;;;;;;8.55;1.85;;;;;;;;;;5036611;28;20132;-83
2021/05/26 15:22:18;;;;;;;8.77;1.90;;;;;;;;;;5025326;28;20036;-84
2021/05/26 15:24:44;;;;;;;9.48;1.65;;;;;;;;;;5041507;28;20013;-84